createdAt,value
2023-04-07T00:00:50.461Z,12.50
2023-04-07T00:03:24.874Z,11.50
2023-04-07T00:05:53.873Z,11.90
2023-04-07T00:08:22.213Z,13.10
2023-04-07T00:10:50.561Z,10.30
2023-04-07T00:13:21.070Z,12.10
2023-04-07T00:15:49.747Z,11.30
2023-04-07T00:18:25.061Z,11.70
2023-04-07T00:20:53.682Z,11.70
2023-04-07T00:23:22.174Z,11.20
2023-04-07T00:25:50.531Z,11.50
2023-04-07T00:28:19.129Z,11.20
2023-04-07T00:30:52.258Z,12.20
2023-04-07T00:33:21.015Z,11.90
2023-04-07T00:35:50.117Z,12.10
2023-04-07T00:38:19.011Z,12.30
2023-04-07T00:40:47.536Z,11.30
2023-04-07T00:43:15.841Z,11.10
2023-04-07T00:45:45.051Z,12.80
2023-04-07T00:48:13.404Z,13.10
2023-04-07T00:50:42.357Z,10.90
2023-04-07T00:53:12.051Z,12.30
2023-04-07T00:55:40.674Z,11.00
2023-04-07T00:58:09.714Z,12.10
2023-04-07T01:00:52.289Z,12.40
2023-04-07T01:03:34.051Z,12.10
2023-04-07T01:06:07.205Z,11.80
2023-04-07T01:08:35.774Z,12.90
2023-04-07T01:11:24.854Z,12.10
2023-04-07T01:13:55.363Z,12.50
2023-04-07T01:16:50.835Z,12.20
2023-04-07T01:19:38.456Z,12.30
2023-04-07T01:22:14.228Z,11.10
2023-04-07T01:24:51.466Z,12.70
2023-04-07T01:27:41.784Z,10.70
2023-04-07T01:30:13.031Z,12.20
2023-04-07T01:32:56.675Z,12.80
2023-04-07T01:35:27.213Z,14.00
2023-04-07T01:37:56.574Z,14.40
2023-04-07T01:40:25.893Z,13.70
2023-04-07T01:42:57.939Z,13.10
2023-04-07T01:45:27.703Z,13.70
2023-04-07T01:47:56.845Z,13.50
2023-04-07T01:50:26.431Z,13.30
2023-04-07T01:52:55.609Z,13.00
2023-04-07T01:55:25.184Z,13.40
2023-04-07T01:58:07.332Z,14.00
2023-04-07T02:00:37.592Z,12.70
2023-04-07T02:03:23.485Z,13.70
2023-04-07T02:05:56.656Z,14.00
2023-04-07T02:08:31.173Z,14.80
2023-04-07T02:11:03.925Z,14.00
2023-04-07T02:13:37.815Z,13.80
2023-04-07T02:16:08.232Z,14.50
2023-04-07T02:18:38.786Z,15.50
2023-04-07T02:21:09.399Z,14.60
2023-04-07T02:23:39.287Z,14.80
2023-04-07T02:26:08.227Z,16.20
2023-04-07T02:28:37.219Z,17.70
2023-04-07T02:31:06.343Z,17.30
2023-04-07T02:33:36.231Z,18.10
2023-04-07T02:36:04.595Z,18.40
2023-04-07T02:38:33.105Z,18.20
2023-04-07T02:41:01.471Z,18.60
2023-04-07T02:43:31.861Z,19.60
2023-04-07T02:46:00.336Z,19.90
2023-04-07T02:48:29.798Z,17.70
2023-04-07T02:50:59.125Z,19.30
2023-04-07T02:53:32.978Z,19.00
2023-04-07T02:56:01.398Z,19.50
2023-04-07T02:58:30.138Z,17.40
2023-04-07T03:00:58.462Z,17.00
2023-04-07T03:03:32.338Z,20.60
2023-04-07T03:06:22.673Z,21.00
2023-04-07T03:08:59.690Z,19.10
2023-04-07T03:11:28.939Z,19.50
2023-04-07T03:13:58.202Z,21.60
2023-04-07T03:16:41.166Z,19.70
2023-04-07T03:19:14.676Z,18.60
2023-04-07T03:21:48.760Z,18.00
2023-04-07T03:24:19.690Z,19.70
2023-04-07T03:26:48.446Z,17.90
2023-04-07T03:29:37.718Z,19.50
2023-04-07T03:32:08.106Z,18.10
2023-04-07T03:34:36.404Z,19.60
2023-04-07T03:37:05.488Z,18.40
2023-04-07T03:39:37.565Z,17.30
2023-04-07T03:42:13.304Z,20.30
2023-04-07T03:44:43.009Z,18.00
2023-04-07T03:47:11.562Z,16.90
2023-04-07T03:49:40.562Z,16.60
2023-04-07T03:52:09.199Z,17.50
2023-04-07T03:54:40.684Z,15.50
2023-04-07T03:57:09.949Z,16.90
2023-04-07T03:59:42.749Z,17.10
2023-04-07T04:02:11.800Z,18.00
2023-04-07T04:04:41.568Z,20.60
2023-04-07T04:07:10.572Z,20.10
2023-04-07T04:09:51.682Z,20.10
2023-04-07T04:12:20.241Z,22.20
2023-04-07T04:15:00.822Z,19.70
2023-04-07T04:17:29.750Z,20.70
2023-04-07T04:19:58.163Z,15.30
2023-04-07T04:22:33.675Z,16.10
2023-04-07T04:25:03.132Z,15.00
2023-04-07T04:27:35.951Z,14.90
2023-04-07T04:30:12.938Z,16.60
2023-04-07T04:32:47.874Z,14.90
2023-04-07T04:37:58.919Z,13.90
2023-04-07T04:40:28.101Z,14.70
2023-04-07T04:42:57.073Z,12.00
2023-04-07T04:45:26.400Z,11.80
2023-04-07T04:47:57.219Z,12.80
2023-04-07T04:50:25.839Z,12.30
2023-04-07T04:52:54.215Z,12.70
2023-04-07T04:55:25.699Z,18.00
2023-04-07T04:57:54.939Z,17.60
2023-04-07T05:00:36.856Z,21.20
2023-04-07T05:03:08.462Z,17.40
2023-04-07T05:05:39.672Z,14.30
2023-04-07T05:08:11.414Z,13.40
2023-04-07T05:10:41.018Z,13.20
2023-04-07T05:13:12.663Z,13.60
2023-04-07T05:15:43.492Z,13.70
2023-04-07T05:18:13.455Z,13.00
2023-04-07T05:20:44.645Z,13.70
2023-04-07T05:23:15.202Z,12.90
2023-04-07T05:25:44.974Z,12.80
2023-04-07T05:28:13.284Z,15.30
2023-04-07T05:30:41.755Z,14.30
2023-04-07T05:33:11.449Z,17.60
2023-04-07T05:35:47.473Z,20.00
2023-04-07T05:38:19.667Z,19.10
2023-04-07T05:40:48.544Z,19.70
2023-04-07T05:43:25.455Z,21.30
2023-04-07T05:45:53.993Z,19.60
2023-04-07T05:48:22.709Z,18.90
2023-04-07T05:50:51.461Z,17.60
2023-04-07T05:53:20.071Z,17.40
2023-04-07T05:55:50.204Z,16.60
2023-04-07T05:58:42.219Z,17.00
2023-04-07T06:01:12.089Z,17.50
2023-04-07T06:03:42.256Z,17.10
2023-04-07T06:06:16.658Z,18.00
2023-04-07T06:08:48.809Z,17.00
2023-04-07T06:11:17.800Z,18.20
2023-04-07T06:13:46.792Z,17.00
2023-04-07T06:16:18.334Z,16.80
2023-04-07T06:18:52.518Z,17.40
2023-04-07T06:21:20.882Z,17.00
2023-04-07T06:23:51.845Z,16.30
2023-04-07T06:26:21.841Z,17.20
2023-04-07T06:28:50.161Z,16.10
2023-04-07T06:31:21.335Z,16.90
2023-04-07T06:33:50.936Z,16.70
2023-04-07T06:36:21.929Z,16.40
2023-04-07T06:38:51.187Z,17.10
2023-04-07T06:41:19.396Z,16.50
2023-04-07T06:43:49.773Z,17.20
2023-04-07T06:46:19.041Z,16.30
2023-04-07T06:48:47.679Z,16.90
2023-04-07T06:51:16.393Z,16.80
2023-04-07T06:53:44.722Z,14.50
2023-04-07T06:56:13.110Z,15.30
2023-04-07T07:15:16.225Z,14.30
2023-04-07T07:17:45.112Z,13.70
2023-04-07T07:20:13.533Z,13.40
2023-04-07T07:22:42.104Z,13.20
2023-04-07T07:25:10.566Z,11.90
2023-04-07T07:27:38.916Z,11.00
2023-04-07T07:30:08.074Z,10.80
2023-04-07T07:32:50.453Z,11.70
2023-04-07T07:35:18.720Z,12.20
2023-04-07T07:37:47.736Z,10.00
2023-04-07T07:40:16.539Z,10.90
2023-04-07T07:42:46.716Z,10.40
2023-04-07T07:45:17.658Z,9.30
2023-04-07T07:47:46.200Z,9.70
2023-04-07T07:50:14.578Z,9.50
2023-04-07T07:52:43.623Z,9.70
2023-04-07T07:55:11.953Z,9.40
2023-04-07T07:57:41.529Z,9.80
2023-04-07T08:00:10.637Z,10.30
2023-04-07T08:03:00.792Z,9.60
2023-04-07T08:05:30.125Z,9.00
2023-04-07T08:07:58.768Z,9.30
2023-04-07T08:10:27.081Z,8.60
2023-04-07T08:12:58.765Z,8.00
2023-04-07T08:15:27.360Z,10.00
2023-04-07T08:17:56.630Z,9.40
2023-04-07T08:20:27.743Z,8.20
2023-04-07T08:22:56.415Z,8.70
2023-04-07T08:25:26.397Z,8.20
2023-04-07T08:27:56.729Z,8.50
2023-04-07T08:30:25.092Z,7.90
2023-04-07T08:33:08.804Z,7.60
2023-04-07T08:35:37.131Z,8.60
2023-04-07T08:38:06.365Z,8.20
2023-04-07T08:40:34.828Z,8.40
2023-04-07T08:43:09.550Z,8.40
2023-04-07T08:45:40.703Z,8.50
2023-04-07T08:48:18.967Z,8.20
2023-04-07T08:50:53.081Z,7.50
2023-04-07T08:53:32.282Z,9.30
2023-04-07T08:56:02.304Z,9.60
2023-04-07T08:58:31.540Z,8.70
2023-04-07T09:01:00.180Z,8.30
2023-04-07T09:03:32.943Z,7.80
2023-04-07T09:06:02.529Z,8.20
2023-04-07T09:08:31.397Z,7.60
2023-04-07T09:11:03.258Z,8.10
2023-04-07T09:13:32.045Z,7.00
2023-04-07T09:16:02.480Z,6.30
2023-04-07T09:21:05.024Z,7.10
2023-04-07T09:23:39.046Z,6.80
2023-04-07T09:26:23.063Z,5.90
2023-04-07T09:29:03.046Z,5.80
2023-04-07T09:31:52.999Z,7.00
2023-04-07T09:34:28.918Z,6.60
2023-04-07T09:36:58.715Z,5.30
2023-04-07T09:39:27.654Z,5.90
2023-04-07T09:41:55.972Z,5.60
2023-04-07T09:44:25.733Z,6.30
2023-04-07T09:46:59.347Z,5.50
2023-04-07T09:49:27.819Z,6.20
2023-04-07T09:52:08.472Z,6.90
2023-04-07T09:54:39.757Z,5.80
2023-04-07T09:57:10.844Z,5.60
2023-04-07T09:59:44.876Z,5.30
2023-04-07T10:02:13.313Z,6.20
2023-04-07T10:04:42.587Z,5.70
2023-04-07T10:07:11.339Z,6.50
2023-04-07T10:09:41.648Z,5.40
2023-04-07T10:12:11.397Z,4.30
2023-04-07T10:14:40.419Z,4.50
2023-04-07T10:17:08.937Z,4.10
2023-04-07T10:19:38.238Z,4.20
2023-04-07T10:22:07.491Z,4.10
2023-04-07T10:24:53.881Z,5.10
2023-04-07T10:27:33.306Z,3.80
2023-04-07T10:30:04.539Z,3.90
2023-04-07T10:32:54.527Z,3.90
2023-04-07T10:35:27.154Z,4.40
2023-04-07T10:38:08.954Z,3.80
2023-04-07T10:40:38.458Z,3.80
2023-04-07T10:43:09.815Z,4.30
2023-04-07T10:45:47.343Z,4.00
2023-04-07T10:48:18.731Z,3.50
2023-04-07T10:51:07.612Z,4.30
2023-04-07T10:53:38.574Z,4.10
2023-04-07T10:56:07.210Z,3.60
2023-04-07T10:58:36.080Z,3.90
2023-04-07T11:01:04.992Z,4.00
2023-04-07T11:03:42.242Z,5.20
2023-04-07T11:06:12.784Z,4.50
2023-04-07T11:40:34.425Z,5.00
2023-04-07T11:43:06.194Z,5.00
2023-04-07T11:45:36.170Z,5.00
2023-04-07T11:48:04.749Z,5.30
2023-04-07T11:50:42.821Z,5.90
2023-04-07T11:53:11.799Z,5.20
2023-04-07T11:55:40.273Z,4.90
2023-04-07T11:58:12.341Z,5.00
2023-04-07T12:01:06.938Z,4.70
2023-04-07T12:03:38.336Z,4.80
2023-04-07T12:06:08.649Z,5.40
2023-04-07T12:08:39.020Z,4.30
2023-04-07T12:11:09.447Z,5.30
2023-04-07T12:13:41.631Z,4.70
2023-04-07T12:16:10.609Z,5.90
2023-04-07T12:18:39.085Z,5.20
2023-04-07T12:21:10.627Z,6.40
2023-04-07T12:23:41.272Z,5.70
2023-04-07T12:26:12.053Z,5.80
2023-04-07T12:28:41.570Z,5.10
2023-04-07T12:31:10.405Z,4.40
2023-04-07T12:33:38.753Z,5.60
2023-04-07T12:36:07.928Z,4.90
2023-04-07T12:38:37.376Z,4.90
2023-04-07T12:41:05.725Z,5.70
2023-04-07T12:43:34.957Z,5.70
2023-04-07T12:46:06.209Z,7.70
2023-04-07T12:48:35.213Z,7.20
2023-04-07T12:51:03.785Z,7.40
2023-04-07T12:53:33.588Z,6.80
2023-04-07T12:56:01.913Z,7.50
2023-04-07T12:58:35.535Z,7.50
2023-04-07T13:01:04.266Z,7.40
2023-04-07T13:03:42.456Z,7.30
2023-04-07T13:06:11.997Z,7.70
2023-04-07T13:08:41.000Z,7.60
2023-04-07T13:11:09.417Z,6.80
2023-04-07T13:13:38.655Z,6.40
2023-04-07T13:16:07.425Z,5.80
2023-04-07T13:18:36.823Z,6.30
2023-04-07T13:21:40.654Z,24.70
2023-04-07T13:23:55.055Z,13.10
2023-04-07T13:26:24.299Z,10.50
2023-04-07T13:28:53.227Z,13.90
2023-04-07T13:31:22.294Z,10.90
2023-04-07T13:33:51.882Z,8.80
2023-04-07T13:36:23.129Z,7.80
2023-04-07T13:38:54.047Z,6.50
2023-04-07T13:41:23.132Z,5.60
2023-04-07T13:43:52.083Z,6.60
2023-04-07T13:46:28.430Z,5.90
2023-04-07T13:48:57.574Z,10.70
2023-04-07T13:51:28.287Z,7.50
2023-04-07T13:53:56.772Z,5.70
2023-04-07T13:56:25.190Z,5.00
2023-04-07T13:58:54.161Z,5.80
2023-04-07T14:01:23.017Z,6.10
2023-04-07T14:03:53.320Z,5.70
2023-04-07T14:06:23.033Z,5.80
2023-04-07T14:08:52.568Z,5.90
2023-04-07T14:11:24.610Z,5.60
2023-04-07T14:13:58.772Z,5.50
2023-04-07T14:16:28.883Z,8.80
2023-04-07T14:18:58.408Z,7.70
2023-04-07T14:21:28.034Z,10.90
2023-04-07T14:23:56.877Z,6.30
2023-04-07T14:26:25.138Z,5.70
2023-04-07T14:28:54.068Z,9.40
2023-04-07T14:31:22.537Z,7.90
2023-04-07T14:33:51.234Z,5.70
2023-04-07T14:36:19.891Z,4.50
2023-04-07T14:38:48.092Z,4.40
2023-04-07T14:41:16.766Z,4.20
2023-04-07T14:43:45.232Z,4.00
2023-04-07T14:46:15.147Z,3.90
2023-04-07T14:48:46.366Z,3.80
2023-04-07T14:51:14.718Z,3.90
2023-04-07T14:53:45.996Z,4.10
2023-04-07T14:56:14.564Z,3.60
2023-04-07T14:58:46.619Z,4.20
2023-04-07T15:01:15.447Z,3.80
2023-04-07T15:03:45.253Z,4.80
2023-04-07T15:06:14.102Z,4.90
2023-04-07T15:08:44.045Z,5.10
2023-04-07T15:11:13.362Z,5.70
2023-04-07T15:13:41.892Z,3.90
2023-04-07T15:16:12.714Z,4.40
2023-04-07T15:18:44.851Z,4.00
2023-04-07T15:21:15.018Z,3.60
2023-04-07T15:23:44.055Z,5.30
2023-04-07T15:26:12.619Z,5.10
2023-04-07T15:28:42.253Z,5.60
2023-04-07T15:31:10.826Z,7.60
2023-04-07T15:33:40.963Z,5.70
2023-04-07T15:36:09.542Z,6.20
2023-04-07T15:38:40.543Z,4.60
2023-04-07T15:41:08.906Z,4.70
2023-04-07T15:43:37.995Z,4.60
2023-04-07T15:46:06.364Z,5.70
2023-04-07T15:48:35.058Z,5.10
2023-04-07T15:51:03.538Z,7.10
2023-04-07T15:53:32.448Z,7.50
2023-04-07T15:56:00.855Z,10.00
2023-04-07T15:58:29.403Z,13.20
2023-04-07T16:00:58.060Z,11.00
2023-04-07T16:03:28.492Z,8.90
2023-04-07T16:05:57.174Z,8.90
2023-04-07T16:08:25.535Z,4.20
2023-04-07T16:10:54.664Z,5.40
2023-04-07T16:13:23.446Z,7.70
2023-04-07T16:15:59.306Z,6.80
2023-04-07T16:18:28.539Z,5.10
2023-04-07T16:20:56.818Z,5.40
2023-04-07T16:23:26.587Z,5.10
2023-04-07T16:25:55.625Z,6.20
2023-04-07T16:28:24.018Z,8.00
2023-04-07T16:30:57.128Z,8.30
2023-04-07T16:33:28.309Z,8.20
2023-04-07T16:35:56.583Z,7.70
2023-04-07T16:38:27.548Z,7.60
2023-04-07T16:41:04.020Z,8.30
2023-04-07T16:43:35.719Z,8.30
2023-04-07T16:46:06.061Z,12.00
2023-04-07T16:48:34.549Z,11.90
2023-04-07T16:51:03.324Z,11.80
2023-04-07T16:53:31.657Z,10.60
2023-04-07T16:56:04.540Z,17.10
2023-04-07T16:58:33.761Z,17.90
2023-04-07T17:01:02.409Z,16.70
2023-04-07T17:03:32.926Z,23.00
2023-04-07T17:06:05.696Z,29.40
2023-04-07T17:08:36.055Z,36.30
2023-04-07T17:11:08.342Z,34.70
2023-04-07T17:13:36.787Z,25.60
2023-04-07T17:16:14.522Z,19.80
2023-04-07T17:18:45.166Z,15.40
2023-04-07T17:21:15.640Z,16.30
2023-04-07T17:23:45.720Z,14.00
2023-04-07T17:26:14.015Z,13.10
2023-04-07T17:28:42.336Z,11.00
2023-04-07T17:31:13.724Z,10.30
2023-04-07T17:33:42.936Z,10.70
2023-04-07T17:36:11.263Z,10.00
2023-04-07T17:38:40.610Z,8.10
2023-04-07T17:41:09.144Z,7.10
2023-04-07T17:43:37.911Z,10.30
2023-04-07T17:46:06.338Z,11.60
2023-04-07T17:48:34.664Z,9.30
2023-04-07T17:51:04.209Z,9.60
2023-04-07T17:53:33.067Z,10.50
2023-04-07T17:56:01.769Z,12.90
2023-04-07T17:58:30.751Z,15.50
2023-04-07T18:00:59.488Z,16.40
2023-04-07T18:03:29.099Z,16.60
2023-04-07T18:05:57.570Z,18.80
2023-04-07T18:08:26.312Z,27.10
2023-04-07T18:10:58.916Z,23.20
2023-04-07T18:13:30.120Z,18.90
2023-04-07T18:15:59.879Z,19.40
2023-04-07T18:18:33.875Z,16.90
2023-04-07T18:21:02.349Z,21.50
2023-04-07T18:23:30.834Z,25.60
2023-04-07T18:26:02.924Z,48.40
2023-04-07T18:28:31.660Z,68.70
2023-04-07T18:31:10.059Z,62.00
2023-04-07T18:33:40.519Z,51.50
2023-04-07T18:36:08.874Z,40.70
2023-04-07T18:38:39.275Z,43.40
2023-04-07T18:41:08.167Z,39.40
2023-04-07T18:43:36.551Z,30.20
2023-04-07T18:46:05.206Z,32.50
2023-04-07T18:48:33.502Z,22.20
2023-04-07T18:51:01.781Z,15.00
2023-04-07T18:53:30.667Z,10.70
2023-04-07T18:55:59.403Z,8.90
2023-04-07T18:58:28.230Z,7.60
2023-04-07T19:00:57.225Z,8.70
2023-04-07T19:03:27.323Z,6.50
2023-04-07T19:05:55.817Z,7.30
2023-04-07T19:08:34.238Z,7.00
2023-04-07T19:11:04.560Z,6.50
2023-04-07T19:13:33.032Z,7.80
2023-04-07T19:16:02.034Z,6.90
2023-04-07T19:18:32.106Z,7.50
2023-04-07T19:21:01.640Z,6.40
2023-04-07T19:23:30.834Z,7.60
2023-04-07T19:26:01.157Z,6.30
2023-04-07T19:28:31.432Z,6.90
2023-04-07T19:30:59.687Z,8.30
2023-04-07T19:33:28.654Z,7.70
2023-04-07T19:35:57.130Z,7.60
2023-04-07T19:38:25.437Z,6.60
2023-04-07T19:40:54.131Z,7.80
2023-04-07T19:43:22.724Z,7.90
2023-04-07T19:45:51.202Z,7.40
2023-04-07T19:48:20.510Z,7.70
2023-04-07T19:50:51.500Z,8.10
2023-04-07T19:53:25.612Z,8.00
2023-04-07T19:55:54.361Z,8.70
2023-04-07T19:58:23.616Z,8.30
2023-04-07T20:00:54.322Z,8.50
2023-04-07T20:03:24.599Z,9.30
2023-04-07T20:05:53.331Z,8.30
2023-04-07T20:08:22.020Z,8.20
2023-04-07T20:10:52.792Z,7.80
2023-04-07T20:13:24.008Z,8.40
2023-04-07T20:15:53.620Z,8.10
2023-04-07T20:18:22.013Z,7.00
2023-04-07T20:21:01.280Z,8.40
2023-04-07T20:23:31.025Z,7.50
2023-04-07T20:26:00.101Z,7.80
2023-04-07T20:28:28.572Z,8.70
2023-04-07T20:30:57.201Z,8.80
2023-04-07T20:33:25.871Z,8.00
2023-04-07T20:35:54.989Z,7.50
2023-04-07T20:38:23.488Z,7.70
2023-04-07T20:40:54.514Z,7.80
2023-04-07T20:43:24.544Z,9.20
2023-04-07T20:45:53.495Z,9.60
2023-04-07T20:48:25.909Z,11.20
2023-04-07T20:50:54.298Z,12.50
2023-04-07T20:53:25.547Z,10.20
2023-04-07T20:55:53.970Z,9.80
2023-04-07T20:58:22.485Z,10.20
2023-04-07T21:00:58.234Z,9.30
2023-04-07T21:03:28.274Z,8.80
2023-04-07T21:05:57.620Z,8.50
2023-04-07T21:08:30.824Z,9.60
2023-04-07T21:10:59.535Z,9.30
2023-04-07T21:13:29.442Z,8.90
2023-04-07T21:15:59.555Z,9.20
2023-04-07T21:18:28.788Z,8.90
2023-04-07T21:21:00.010Z,10.10
2023-04-07T21:23:31.487Z,10.10
2023-04-07T21:26:01.883Z,10.40
2023-04-07T21:28:34.606Z,11.60
2023-04-07T21:31:04.579Z,10.60
2023-04-07T21:33:33.264Z,10.30
2023-04-07T21:36:03.898Z,10.20
2023-04-07T21:38:32.984Z,10.40
2023-04-07T21:41:01.729Z,10.10
2023-04-07T21:43:30.362Z,12.20
2023-04-07T21:45:59.291Z,10.90
2023-04-07T21:48:27.794Z,10.60
2023-04-07T21:50:56.121Z,11.00
2023-04-07T21:53:24.790Z,12.20
2023-04-07T21:55:53.724Z,11.90
2023-04-07T21:58:23.700Z,11.10
2023-04-07T22:00:53.738Z,12.10
2023-04-07T22:03:22.313Z,13.10
2023-04-07T22:05:51.875Z,12.10
2023-04-07T22:08:20.214Z,11.90
2023-04-07T22:10:48.633Z,12.40
2023-04-07T22:13:17.380Z,11.40
2023-04-07T22:15:46.550Z,11.90
2023-04-07T22:18:14.931Z,12.00
2023-04-07T22:20:43.924Z,12.90
2023-04-07T22:23:12.596Z,13.70
2023-04-07T22:25:44.780Z,13.80
2023-04-07T22:28:13.575Z,13.00
2023-04-07T22:30:41.965Z,13.60
2023-04-07T22:33:11.497Z,13.90
2023-04-07T22:35:39.872Z,11.70
2023-04-07T22:38:13.740Z,12.70
2023-04-07T22:40:42.146Z,13.40
2023-04-07T22:43:10.603Z,12.10
2023-04-07T22:45:39.894Z,12.20
2023-04-07T22:48:08.489Z,14.60
2023-04-07T22:50:43.820Z,13.50
2023-04-07T22:53:12.964Z,13.50
2023-04-07T22:55:41.510Z,14.50
2023-04-07T22:58:10.145Z,14.20
2023-04-07T23:00:39.624Z,15.30
2023-04-07T23:03:09.547Z,16.60
2023-04-07T23:05:38.588Z,15.40
2023-04-07T23:08:07.134Z,18.00
2023-04-07T23:10:35.685Z,19.30
2023-04-07T23:13:04.438Z,17.40
2023-04-07T23:15:36.083Z,18.10
2023-04-07T23:18:08.709Z,16.10
2023-04-07T23:20:37.348Z,16.30
2023-04-07T23:23:11.027Z,16.80
2023-04-07T23:25:39.393Z,17.10
2023-04-07T23:28:07.757Z,17.70
2023-04-07T23:30:38.545Z,17.30
2023-04-07T23:33:08.550Z,16.70
2023-04-07T23:35:36.977Z,17.10
2023-04-07T23:38:05.801Z,16.60
2023-04-07T23:40:34.183Z,19.00
2023-04-07T23:43:02.802Z,18.80
2023-04-07T23:45:31.196Z,16.60
2023-04-07T23:47:59.869Z,16.10
2023-04-07T23:50:28.577Z,15.60
2023-04-07T23:52:57.542Z,14.20
2023-04-07T23:55:27.302Z,14.80
2023-04-07T23:57:55.590Z,14.70
